createdAt,value
2018-08-28T00:01:25.109Z,19.60
2018-08-28T00:03:54.454Z,19.86
2018-08-28T00:06:23.584Z,19.29
2018-08-28T00:08:52.740Z,18.53
2018-08-28T00:11:21.848Z,17.52
2018-08-28T00:13:50.860Z,17.68
2018-08-28T00:16:19.953Z,17.74
2018-08-28T00:18:49.072Z,18.16
2018-08-28T00:21:18.104Z,17.75
2018-08-28T00:23:47.213Z,17.94
2018-08-28T00:26:16.295Z,18.11
2018-08-28T00:28:45.341Z,17.92
2018-08-28T00:31:14.420Z,18.38
2018-08-28T00:33:43.597Z,18.06
2018-08-28T00:36:12.607Z,18.54
2018-08-28T00:38:41.753Z,18.07
2018-08-28T00:41:10.817Z,18.40
2018-08-28T00:43:39.864Z,17.72
2018-08-28T00:46:09.017Z,18.42
2018-08-28T00:48:38.109Z,18.54
2018-08-28T00:51:07.156Z,18.75
2018-08-28T00:53:36.308Z,19.27
2018-08-28T00:56:05.354Z,19.79
2018-08-28T00:58:34.469Z,20.17
2018-08-28T01:01:03.538Z,18.90
2018-08-28T01:03:32.561Z,18.83
2018-08-28T01:06:01.590Z,18.51
2018-08-28T01:08:30.550Z,19.12
2018-08-28T01:10:59.670Z,18.65
2018-08-28T01:13:28.679Z,18.90
2018-08-28T01:15:57.939Z,17.51
2018-08-28T01:18:26.943Z,18.22
2018-08-28T01:20:55.976Z,18.00
2018-08-28T01:23:24.990Z,17.62
2018-08-28T01:25:54.021Z,17.79
2018-08-28T01:28:23.186Z,17.09
2018-08-28T01:30:52.219Z,17.89
2018-08-28T01:33:21.304Z,18.51
2018-08-28T01:35:50.367Z,18.83
2018-08-28T01:38:19.463Z,18.20
2018-08-28T01:40:48.458Z,17.21
2018-08-28T01:43:24.009Z,17.81
2018-08-28T01:45:54.731Z,18.35
2018-08-28T01:48:23.736Z,18.72
2018-08-28T01:50:52.823Z,19.00
2018-08-28T01:53:22.015Z,18.80
2018-08-28T01:55:51.085Z,18.90
2018-08-28T01:58:20.181Z,18.89
2018-08-28T02:00:49.140Z,18.44
2018-08-28T02:03:18.291Z,18.85
2018-08-28T02:05:47.348Z,19.15
2018-08-28T02:08:16.334Z,19.62
2018-08-28T02:10:45.412Z,19.11
2018-08-28T02:13:14.615Z,18.61
2018-08-28T02:15:43.709Z,18.82
2018-08-28T02:18:12.773Z,18.10
2018-08-28T02:20:41.897Z,18.89
2018-08-28T02:23:10.867Z,18.71
2018-08-28T02:25:39.863Z,19.20
2018-08-28T02:28:08.917Z,19.63
2018-08-28T02:30:38.000Z,18.99
2018-08-28T02:33:07.093Z,19.28
2018-08-28T02:35:36.168Z,19.67
2018-08-28T02:38:05.271Z,19.39
2018-08-28T02:40:34.372Z,19.51
2018-08-28T02:43:03.401Z,19.82
2018-08-28T02:45:32.630Z,19.44
2018-08-28T02:48:01.725Z,18.76
2018-08-28T02:50:30.967Z,19.21
2018-08-28T02:53:00.074Z,19.26
2018-08-28T02:55:29.223Z,19.34
2018-08-28T02:57:58.208Z,19.37
2018-08-28T03:00:27.241Z,18.70
2018-08-28T03:02:56.410Z,18.65
2018-08-28T03:05:25.648Z,19.26
2018-08-28T03:07:54.610Z,19.61
2018-08-28T03:10:27.793Z,19.79
2018-08-28T03:12:57.716Z,19.33
2018-08-28T03:15:26.786Z,19.24
2018-08-28T03:17:55.873Z,19.03
2018-08-28T03:20:24.915Z,19.17
2018-08-28T03:22:53.899Z,19.56
2018-08-28T03:25:22.960Z,17.96
2018-08-28T03:27:52.539Z,17.90
2018-08-28T03:30:22.621Z,17.68
2018-08-28T03:32:53.708Z,17.92
2018-08-28T03:35:22.752Z,17.71
2018-08-28T03:37:51.792Z,17.90
2018-08-28T03:40:20.929Z,18.30
2018-08-28T03:42:49.918Z,17.70
2018-08-28T03:45:18.909Z,17.31
2018-08-28T03:47:47.934Z,17.99
2018-08-28T03:50:16.909Z,18.55
2018-08-28T03:52:45.887Z,18.87
2018-08-28T03:55:15.073Z,18.21
2018-08-28T03:57:44.284Z,17.74
2018-08-28T04:00:13.360Z,18.39
2018-08-28T04:02:42.434Z,18.97
2018-08-28T04:05:11.425Z,19.29
2018-08-28T04:07:41.014Z,18.93
2018-08-28T04:10:10.002Z,19.62
2018-08-28T04:12:39.071Z,19.97
2018-08-28T04:15:08.500Z,19.83
2018-08-28T04:17:41.828Z,19.57
2018-08-28T04:20:11.078Z,19.49
2018-08-28T04:22:40.176Z,19.61
2018-08-28T04:25:09.171Z,19.77
2018-08-28T04:27:38.220Z,19.20
2018-08-28T04:30:07.984Z,19.76
2018-08-28T04:32:37.075Z,20.08
2018-08-28T04:35:06.410Z,20.25
2018-08-28T04:37:36.299Z,20.25
2018-08-28T04:40:05.737Z,20.45
2018-08-28T04:42:34.887Z,20.13
2018-08-28T04:45:04.020Z,19.61
2018-08-28T04:47:32.984Z,19.18
2018-08-28T04:50:02.120Z,19.79
2018-08-28T04:52:31.164Z,20.19
2018-08-28T04:55:00.221Z,19.71
2018-08-28T04:57:29.260Z,19.77
2018-08-28T04:59:58.287Z,19.91
2018-08-28T05:02:31.321Z,20.25
2018-08-28T05:05:00.347Z,20.43
2018-08-28T05:07:29.527Z,19.20
2018-08-28T05:09:58.510Z,18.64
2018-08-28T05:12:27.720Z,19.27
2018-08-28T05:14:56.806Z,19.48
2018-08-28T05:17:25.809Z,19.05
2018-08-28T05:19:55.114Z,18.62
2018-08-28T05:22:24.787Z,18.56
2018-08-28T05:24:53.901Z,18.68
2018-08-28T05:27:23.126Z,18.83
2018-08-28T05:29:52.140Z,18.08
2018-08-28T05:32:21.084Z,18.37
2018-08-28T05:34:50.186Z,18.14
2018-08-28T05:37:19.186Z,17.83
2018-08-28T05:39:48.144Z,18.02
2018-08-28T05:42:17.169Z,18.16
2018-08-28T05:44:46.202Z,18.54
2018-08-28T05:47:15.124Z,18.78
2018-08-28T05:49:44.142Z,18.20
2018-08-28T05:52:13.272Z,18.01
2018-08-28T05:54:42.303Z,18.12
2018-08-28T05:57:11.295Z,18.61
2018-08-28T05:59:40.450Z,18.03
2018-08-28T06:02:09.688Z,18.60
2018-08-28T06:04:38.723Z,18.14
2018-08-28T06:07:07.751Z,17.62
2018-08-28T06:09:36.847Z,17.73
2018-08-28T06:12:05.929Z,17.72
2018-08-28T06:14:34.879Z,17.77
2018-08-28T06:17:03.927Z,18.14
2018-08-28T06:19:32.970Z,18.12
2018-08-28T06:22:01.938Z,17.88
2018-08-28T06:24:30.959Z,17.74
2018-08-28T06:27:00.008Z,18.12
2018-08-28T06:29:29.008Z,18.03
2018-08-28T06:31:57.994Z,17.79
2018-08-28T06:34:27.032Z,17.85
2018-08-28T06:36:56.107Z,17.86
2018-08-28T06:39:25.134Z,18.08
2018-08-28T06:41:54.131Z,18.04
2018-08-28T06:44:23.143Z,18.46
2018-08-28T06:46:52.197Z,18.20
2018-08-28T06:49:21.293Z,18.34
2018-08-28T06:51:50.340Z,18.11
2018-08-28T06:54:19.605Z,18.14
2018-08-28T06:56:48.764Z,18.33
2018-08-28T06:59:17.789Z,18.21
2018-08-28T07:01:46.763Z,18.57
2018-08-28T07:04:15.697Z,18.89
2018-08-28T07:06:44.720Z,18.84
2018-08-28T07:09:13.629Z,18.98
2018-08-28T07:11:42.832Z,19.17
2018-08-28T07:14:11.771Z,19.15
2018-08-28T07:16:40.735Z,18.87
2018-08-28T07:19:09.763Z,18.66
2018-08-28T07:21:38.840Z,19.17
2018-08-28T07:24:07.856Z,19.25
2018-08-28T07:26:36.977Z,18.84
2018-08-28T07:29:06.136Z,19.05
2018-08-28T07:31:35.472Z,19.17
2018-08-28T07:34:04.505Z,19.56
2018-08-28T07:36:33.504Z,19.72
2018-08-28T07:39:02.644Z,19.71
2018-08-28T07:41:31.599Z,19.02
2018-08-28T07:44:00.497Z,19.19
2018-08-28T07:46:29.403Z,19.11
2018-08-28T07:48:58.369Z,18.83
2018-08-28T07:51:27.347Z,19.14
2018-08-28T07:53:56.445Z,19.47
2018-08-28T07:56:25.534Z,19.48
2018-08-28T07:58:54.498Z,19.11
2018-08-28T08:01:23.524Z,19.23
2018-08-28T08:03:52.501Z,19.15
2018-08-28T08:06:21.424Z,19.51
2018-08-28T08:08:50.315Z,19.80
2018-08-28T08:11:19.350Z,19.81
2018-08-28T08:13:48.324Z,20.01
2018-08-28T08:16:17.274Z,19.86
2018-08-28T08:18:46.202Z,19.97
2018-08-28T08:21:15.244Z,19.74
2018-08-28T08:23:44.195Z,19.49
2018-08-28T08:26:13.220Z,19.97
2018-08-28T08:28:42.196Z,19.55
2018-08-28T08:31:11.083Z,19.83
2018-08-28T08:33:40.175Z,19.78
2018-08-28T08:36:09.132Z,19.30
2018-08-28T08:38:38.051Z,19.02
2018-08-28T08:41:06.963Z,19.41
2018-08-28T08:43:35.941Z,19.50
2018-08-28T08:46:05.036Z,19.25
2018-08-28T08:48:33.928Z,19.21
2018-08-28T08:51:02.974Z,19.41
2018-08-28T08:53:32.279Z,19.74
2018-08-28T08:56:01.256Z,19.78
2018-08-28T08:58:30.172Z,19.88
2018-08-28T09:00:59.373Z,20.10
2018-08-28T09:03:29.444Z,20.30
2018-08-28T09:05:58.777Z,20.39
2018-08-28T09:08:27.826Z,20.15
2018-08-28T09:10:56.936Z,20.42
2018-08-28T09:13:25.945Z,20.63
2018-08-28T09:15:54.897Z,20.91
2018-08-28T09:18:23.895Z,20.01
2018-08-28T09:20:52.882Z,20.42
2018-08-28T09:23:21.944Z,20.32
2018-08-28T09:25:50.847Z,20.72
2018-08-28T09:28:19.739Z,20.66
2018-08-28T09:30:48.622Z,20.62
2018-08-28T09:33:17.579Z,20.89
2018-08-28T09:35:46.543Z,20.97
2018-08-28T09:38:15.555Z,20.76
2018-08-28T09:40:44.573Z,20.67
2018-08-28T09:43:13.495Z,20.95
2018-08-28T09:45:42.390Z,21.15
2018-08-28T09:48:11.444Z,20.97
2018-08-28T09:50:40.283Z,21.33
2018-08-28T09:53:09.260Z,21.62
2018-08-28T09:55:38.250Z,21.84
2018-08-28T09:58:07.127Z,21.75
2018-08-28T10:00:41.187Z,21.82
2018-08-28T10:03:10.170Z,21.96
2018-08-28T10:05:39.101Z,22.09
2018-08-28T10:08:08.051Z,22.18
2018-08-28T10:10:37.023Z,22.23
2018-08-28T10:13:06.082Z,22.30
2018-08-28T10:15:35.108Z,22.53
2018-08-28T10:18:04.183Z,22.58
2018-08-28T10:20:33.125Z,22.72
2018-08-28T10:23:02.082Z,22.69
2018-08-28T10:25:31.131Z,22.70
2018-08-28T10:28:00.032Z,22.81
2018-08-28T10:30:29.019Z,22.87
2018-08-28T10:32:57.923Z,23.08
2018-08-28T10:35:26.884Z,22.75
2018-08-28T10:37:55.843Z,22.77
2018-08-28T10:40:24.728Z,22.88
2018-08-28T10:42:53.715Z,23.00
2018-08-28T10:45:22.687Z,23.10
2018-08-28T10:47:51.793Z,23.16
2018-08-28T10:50:20.675Z,23.13
2018-08-28T10:52:49.847Z,23.29
2018-08-28T10:55:18.821Z,23.22
2018-08-28T10:57:47.771Z,23.33
2018-08-28T11:00:16.795Z,23.33
2018-08-28T11:02:45.664Z,23.30
2018-08-28T11:05:14.594Z,23.25
2018-08-28T11:07:43.709Z,23.10
2018-08-28T11:10:12.771Z,23.32
2018-08-28T11:12:41.954Z,23.39
2018-08-28T11:15:11.205Z,23.45
2018-08-28T11:17:40.252Z,23.42
2018-08-28T11:20:09.383Z,23.58
2018-08-28T11:22:38.384Z,23.60
2018-08-28T11:25:07.302Z,23.73
2018-08-28T11:27:36.348Z,23.53
2018-08-28T11:30:05.344Z,23.81
2018-08-28T11:32:34.247Z,23.78
2018-08-28T11:35:03.143Z,23.71
2018-08-28T11:37:32.105Z,23.88
2018-08-28T11:40:01.013Z,23.80
2018-08-28T11:42:29.918Z,23.88
2018-08-28T11:44:58.967Z,23.90
2018-08-28T11:47:27.926Z,24.00
2018-08-28T11:49:56.984Z,24.13
2018-08-28T11:52:25.962Z,24.14
2018-08-28T11:54:54.849Z,24.17
2018-08-28T11:57:23.775Z,24.14
2018-08-28T11:59:52.724Z,24.04
2018-08-28T12:02:21.687Z,24.17
2018-08-28T12:04:50.663Z,24.17
2018-08-28T12:07:19.646Z,24.21
2018-08-28T12:09:48.700Z,24.36
2018-08-28T12:12:17.601Z,24.42
2018-08-28T12:14:46.487Z,24.51
2018-08-28T12:17:15.517Z,24.45
2018-08-28T12:19:44.553Z,24.43
2018-08-28T12:22:13.463Z,24.46
2018-08-28T12:24:42.385Z,24.46
2018-08-28T12:27:11.289Z,24.53
2018-08-28T12:29:40.401Z,24.55
2018-08-28T12:32:09.339Z,24.65
2018-08-28T12:34:38.283Z,24.62
2018-08-28T12:37:07.334Z,24.67
2018-08-28T12:39:36.219Z,24.70
2018-08-28T12:42:05.284Z,24.67
2018-08-28T12:44:34.274Z,24.65
2018-08-28T12:47:03.394Z,24.68
2018-08-28T12:49:32.620Z,24.68
2018-08-28T12:52:01.664Z,24.65
2018-08-28T12:54:30.711Z,24.80
2018-08-28T12:56:59.650Z,24.89
2018-08-28T12:59:31.416Z,24.93
2018-08-28T13:02:00.376Z,25.02
2018-08-28T13:04:29.300Z,25.08
2018-08-28T13:06:58.498Z,24.93
2018-08-28T13:09:27.517Z,25.03
2018-08-28T13:11:56.511Z,25.21
2018-08-28T13:14:25.443Z,25.21
2018-08-28T13:16:54.514Z,25.18
2018-08-28T13:19:23.488Z,24.99
2018-08-28T13:21:52.466Z,25.09
2018-08-28T13:24:21.515Z,25.00
2018-08-28T13:26:50.739Z,24.95
2018-08-28T13:29:19.788Z,24.91
2018-08-28T13:31:48.847Z,24.56
2018-08-28T13:34:17.902Z,24.73
2018-08-28T13:36:46.914Z,24.84
2018-08-28T13:39:15.927Z,24.74
2018-08-28T13:41:45.137Z,24.87
2018-08-28T13:44:14.113Z,24.80
2018-08-28T13:46:43.013Z,24.78
2018-08-28T13:49:11.967Z,24.61
2018-08-28T13:51:40.977Z,24.70
2018-08-28T13:54:09.999Z,24.91
2018-08-28T13:56:39.155Z,24.90
2018-08-28T13:59:08.396Z,25.00
2018-08-28T14:01:37.407Z,25.03
2018-08-28T14:04:06.403Z,25.21
2018-08-28T14:06:35.454Z,25.32
2018-08-28T14:09:04.666Z,25.38
2018-08-28T14:11:33.627Z,25.34
2018-08-28T14:14:02.612Z,25.23
2018-08-28T14:16:31.590Z,25.13
2018-08-28T14:19:00.532Z,25.13
2018-08-28T14:21:29.452Z,25.16
2018-08-28T14:23:58.411Z,25.25
2018-08-28T14:26:27.411Z,25.33
2018-08-28T14:28:56.459Z,25.18
2018-08-28T14:31:25.403Z,25.19
2018-08-28T14:33:54.508Z,25.19
2018-08-28T14:36:23.511Z,25.19
2018-08-28T14:38:52.504Z,25.12
2018-08-28T14:41:21.528Z,25.09
2018-08-28T14:43:50.496Z,24.92
2018-08-28T14:46:19.560Z,25.07
2018-08-28T14:48:48.476Z,24.96
2018-08-28T14:51:17.503Z,24.91
2018-08-28T14:53:46.631Z,25.27
2018-08-28T14:56:15.763Z,25.48
2018-08-28T14:58:45.149Z,25.46
2018-08-28T15:01:14.300Z,25.33
2018-08-28T15:03:43.292Z,25.51
2018-08-28T15:06:12.460Z,25.53
2018-08-28T15:08:41.524Z,25.65
2018-08-28T15:11:10.536Z,25.48
2018-08-28T15:13:39.600Z,25.55
2018-08-28T15:16:08.559Z,25.28
2018-08-28T15:18:37.643Z,25.35
2018-08-28T15:21:06.924Z,25.38
2018-08-28T15:23:35.873Z,25.07
2018-08-28T15:26:05.061Z,25.21
2018-08-28T15:28:34.113Z,24.87
2018-08-28T15:31:03.185Z,24.24
2018-08-28T15:33:32.222Z,24.40
2018-08-28T15:36:01.294Z,24.60
2018-08-28T15:38:30.301Z,24.50
2018-08-28T15:40:59.387Z,23.89
2018-08-28T15:43:28.544Z,23.86
2018-08-28T15:45:57.760Z,23.60
2018-08-28T15:48:26.682Z,23.79
2018-08-28T15:50:55.773Z,23.84
2018-08-28T15:53:24.737Z,23.12
2018-08-28T15:55:53.852Z,23.47
2018-08-28T15:58:22.900Z,23.50
2018-08-28T16:00:51.899Z,23.00
2018-08-28T16:03:20.835Z,22.89
2018-08-28T16:05:49.992Z,22.88
2018-08-28T16:08:19.079Z,22.86
2018-08-28T16:10:48.045Z,22.29
2018-08-28T16:13:16.992Z,22.45
2018-08-28T16:15:45.988Z,22.69
2018-08-28T16:18:15.037Z,22.33
2018-08-28T16:20:44.004Z,22.37
2018-08-28T16:23:18.188Z,22.45
2018-08-28T16:25:47.286Z,22.65
2018-08-28T16:28:16.268Z,22.34
2018-08-28T16:30:45.364Z,22.00
2018-08-28T16:33:14.373Z,21.96
2018-08-28T16:35:43.680Z,21.73
2018-08-28T16:38:12.659Z,21.94
2018-08-28T16:40:41.753Z,21.48
2018-08-28T16:43:10.742Z,21.59
2018-08-28T16:45:39.704Z,21.63
2018-08-28T16:48:08.871Z,21.48
2018-08-28T16:50:37.936Z,21.71
2018-08-28T16:53:07.200Z,21.50
2018-08-28T16:55:36.260Z,21.48
2018-08-28T16:58:05.444Z,21.47
2018-08-28T17:00:34.619Z,21.74
2018-08-28T17:03:03.588Z,21.73
2018-08-28T17:05:32.692Z,21.65
2018-08-28T17:08:01.920Z,21.48
2018-08-28T17:10:30.968Z,21.73
2018-08-28T17:13:00.032Z,21.33
2018-08-28T17:15:29.162Z,20.65
2018-08-28T17:17:58.230Z,21.02
2018-08-28T17:20:27.256Z,20.88
2018-08-28T17:22:56.380Z,20.87
2018-08-28T17:25:25.390Z,20.92
2018-08-28T17:27:54.398Z,21.23
2018-08-28T17:30:23.513Z,20.56
2018-08-28T17:32:52.864Z,20.45
2018-08-28T17:35:21.926Z,20.44
2018-08-28T17:37:51.095Z,20.21
2018-08-28T17:40:20.096Z,20.57
2018-08-28T17:42:49.011Z,20.52
2018-08-28T17:45:18.733Z,20.89
2018-08-28T17:47:47.743Z,21.04
2018-08-28T17:50:16.955Z,21.17
2018-08-28T17:52:45.959Z,21.03
2018-08-28T17:55:15.149Z,21.20
2018-08-28T17:57:44.124Z,20.95
2018-08-28T18:00:13.320Z,20.50
2018-08-28T18:02:42.393Z,20.57
2018-08-28T18:05:11.366Z,20.72
2018-08-28T18:07:40.364Z,20.73
2018-08-28T18:10:09.359Z,20.94
2018-08-28T18:12:38.376Z,20.66
2018-08-28T18:15:08.144Z,20.73
2018-08-28T18:17:37.235Z,20.74
2018-08-28T18:20:06.299Z,20.79
2018-08-28T18:22:35.393Z,21.00
2018-08-28T18:25:04.519Z,20.72
2018-08-28T18:27:33.612Z,20.76
2018-08-28T18:30:02.636Z,20.84
2018-08-28T18:32:31.724Z,20.62
2018-08-28T18:35:00.768Z,20.94
2018-08-28T18:37:30.156Z,20.93
2018-08-28T18:39:59.181Z,21.18
2018-08-28T18:42:28.508Z,21.32
2018-08-28T18:44:57.653Z,21.23
2018-08-28T18:47:26.595Z,21.27
2018-08-28T18:49:55.591Z,21.30
2018-08-28T18:52:24.553Z,21.34
2018-08-28T18:54:53.668Z,20.91
2018-08-28T18:57:22.756Z,20.94
2018-08-28T18:59:51.949Z,20.97
2018-08-28T19:02:21.042Z,20.83
2018-08-28T19:04:50.099Z,20.83
2018-08-28T19:07:19.157Z,20.94
2018-08-28T19:09:48.440Z,20.80
2018-08-28T19:12:17.560Z,20.65
2018-08-28T19:14:46.707Z,20.97
2018-08-28T19:17:15.635Z,21.04
2018-08-28T19:19:45.009Z,20.96
2018-08-28T19:22:14.164Z,20.66
2018-08-28T19:24:43.147Z,20.96
2018-08-28T19:27:12.943Z,21.14
2018-08-28T19:29:42.202Z,20.90
2018-08-28T19:32:11.235Z,21.00
2018-08-28T19:34:40.191Z,21.17
2018-08-28T19:37:09.163Z,20.61
2018-08-28T19:39:38.171Z,20.86
2018-08-28T19:42:07.201Z,21.07
2018-08-28T19:44:36.551Z,21.08
2018-08-28T19:47:05.694Z,20.99
2018-08-28T19:49:34.694Z,21.15
2018-08-28T19:52:03.628Z,20.93
2018-08-28T19:54:32.870Z,20.61
2018-08-28T19:57:01.948Z,20.82
2018-08-28T19:59:30.906Z,20.96
2018-08-28T20:01:59.875Z,20.75
2018-08-28T20:04:29.025Z,20.78
2018-08-28T20:06:58.128Z,20.62
2018-08-28T20:09:27.209Z,20.74
2018-08-28T20:11:56.294Z,20.96
2018-08-28T20:14:25.344Z,21.04
2018-08-28T20:16:54.323Z,21.06
2018-08-28T20:19:23.307Z,20.93
2018-08-28T20:21:52.488Z,20.94
2018-08-28T20:24:21.606Z,20.63
2018-08-28T20:26:50.978Z,20.88
2018-08-28T20:29:19.955Z,20.39
2018-08-28T20:31:49.005Z,20.49
2018-08-28T20:34:18.088Z,20.72
2018-08-28T20:36:47.083Z,20.88
2018-08-28T20:39:16.272Z,20.89
2018-08-28T20:41:45.380Z,20.94
2018-08-28T20:44:14.529Z,20.36
2018-08-28T20:46:43.555Z,20.33
2018-08-28T20:49:12.548Z,20.55
2018-08-28T20:51:41.620Z,20.78
2018-08-28T20:54:10.563Z,20.35
2018-08-28T20:56:39.906Z,20.73
2018-08-28T20:59:08.959Z,20.77
2018-08-28T21:01:38.023Z,20.75
2018-08-28T21:04:07.072Z,20.65
2018-08-28T21:06:36.129Z,20.51
2018-08-28T21:09:06.004Z,19.56
2018-08-28T21:11:35.033Z,19.52
2018-08-28T21:14:04.139Z,20.00
2018-08-28T21:16:33.243Z,19.89
2018-08-28T21:19:02.517Z,20.19
2018-08-28T21:21:31.506Z,20.41
2018-08-28T21:24:00.531Z,19.84
2018-08-28T21:26:29.496Z,20.17
2018-08-28T21:28:58.629Z,19.95
2018-08-28T21:31:27.663Z,20.31
2018-08-28T21:33:56.751Z,20.55
2018-08-28T21:36:25.787Z,20.24
2018-08-28T21:38:54.972Z,20.24
2018-08-28T21:41:23.945Z,20.37
2018-08-28T21:43:53.104Z,20.12
2018-08-28T21:46:22.198Z,20.29
2018-08-28T21:48:51.271Z,20.46
2018-08-28T21:51:20.346Z,20.62
2018-08-28T21:53:49.528Z,20.61
2018-08-28T21:56:18.563Z,20.70
2018-08-28T21:58:47.518Z,20.75
2018-08-28T22:01:16.908Z,20.83
2018-08-28T22:03:45.882Z,20.81
2018-08-28T22:06:19.904Z,20.01
2018-08-28T22:08:48.895Z,20.08
2018-08-28T22:11:17.908Z,19.90
2018-08-28T22:13:46.906Z,20.19
2018-08-28T22:16:16.040Z,19.46
2018-08-28T22:18:45.154Z,19.46
2018-08-28T22:21:14.272Z,19.81
2018-08-28T22:23:43.352Z,20.08
2018-08-28T22:26:12.295Z,19.74
2018-08-28T22:28:41.428Z,20.03
2018-08-28T22:31:10.458Z,20.14
2018-08-28T22:33:39.511Z,19.97
2018-08-28T22:36:08.829Z,20.23
2018-08-28T22:38:39.976Z,20.01
2018-08-28T22:41:08.985Z,20.07
2018-08-28T22:43:39.010Z,19.14
2018-08-28T22:46:08.325Z,19.67
2018-08-28T22:48:37.927Z,19.11
2018-08-28T22:51:08.842Z,19.63
2018-08-28T22:53:38.220Z,19.87
2018-08-28T22:56:08.922Z,19.87
2018-08-28T22:58:37.890Z,20.02
2018-08-28T23:01:07.371Z,19.84
2018-08-28T23:03:36.378Z,19.89
2018-08-28T23:06:05.463Z,19.94
2018-08-28T23:08:34.537Z,20.07
2018-08-28T23:11:05.744Z,19.47
2018-08-28T23:13:34.832Z,19.46
2018-08-28T23:16:04.233Z,19.56
2018-08-28T23:18:33.328Z,19.04
2018-08-28T23:21:02.391Z,19.02
2018-08-28T23:23:31.375Z,19.39
2018-08-28T23:26:00.367Z,19.72
2018-08-28T23:28:29.406Z,19.96
2018-08-28T23:30:58.362Z,20.07
2018-08-28T23:33:27.374Z,20.20
2018-08-28T23:35:56.360Z,20.35
2018-08-28T23:38:25.477Z,19.83
2018-08-28T23:40:54.531Z,20.06
2018-08-28T23:43:23.551Z,19.87
2018-08-28T23:45:52.596Z,19.97
2018-08-28T23:48:21.683Z,20.04
2018-08-28T23:50:50.789Z,20.23
2018-08-28T23:53:19.878Z,19.94
2018-08-28T23:55:48.945Z,19.94
2018-08-28T23:58:18.005Z,20.05
